Time;durP1;ratioP1;P1;durP2;ratioP2;P2;SDS_P1;SDS_P2;PMS_P1;PMS_P2;Temp;Humidity;BMP_temperature;BMP_pressure;BME280_temperature;BME280_humidity;BME280_pressure;Samples;Min_cycle;Max_cycle;Signal;HPM_P1;HPM_P2
2024/01/05 00:01:21;;;;;;;;;;;2.50;99.90;;;;;;5066145;28;20428;-63
2024/01/05 00:03:47;;;;;;;;;;;2.50;99.90;;;;;;5057225;28;19932;-62
2024/01/05 00:06:12;;;;;;;;;;;2.50;99.90;;;;;;5052552;28;20011;-63
2024/01/05 00:08:38;;;;;;;;;;;2.50;99.90;;;;;;5083981;28;20298;-62
2024/01/05 00:11:03;;;;;;;;;;;2.50;99.90;;;;;;5083126;28;19989;-62
2024/01/05 00:13:29;;;;;;;;;;;2.60;99.90;;;;;;5085747;28;20315;-63
2024/01/05 00:15:55;;;;;;;;;;;2.50;99.90;;;;;;5062688;28;19927;-62
2024/01/05 00:18:20;;;;;;;;;;;2.50;99.90;;;;;;5084464;28;19924;-62
2024/01/05 00:20:46;;;;;;;;;;;2.50;99.90;;;;;;5071570;28;20267;-63
2024/01/05 00:23:11;;;;;;;;;;;2.50;99.90;;;;;;5071931;28;19932;-62
2024/01/05 00:25:37;;;;;;;;;;;2.50;99.90;;;;;;5083071;28;20044;-62
2024/01/05 00:28:03;;;;;;;;;;;2.50;99.90;;;;;;5067975;28;19935;-62
2024/01/05 00:30:28;;;;;;;;;;;2.40;99.90;;;;;;5068877;28;19924;-62
2024/01/05 00:32:54;;;;;;;;;;;2.50;99.90;;;;;;5067649;28;20248;-62
2024/01/05 00:35:20;;;;;;;;;;;2.40;99.90;;;;;;5072509;28;19928;-63
2024/01/05 00:37:45;;;;;;;;;;;2.40;99.90;;;;;;5085756;28;20004;-61
2024/01/05 00:40:11;;;;;;;;;;;2.40;99.90;;;;;;5072064;28;19924;-62
2024/01/05 00:42:36;;;;;;;;;;;2.40;99.90;;;;;;5072915;28;20365;-62
2024/01/05 00:45:02;;;;;;;;;;;2.40;99.90;;;;;;5057229;28;20322;-63
2024/01/05 00:47:28;;;;;;;;;;;2.40;99.90;;;;;;5067096;27;19975;-61
2024/01/05 00:49:53;;;;;;;;;;;2.30;99.90;;;;;;5088099;27;19950;-62
2024/01/05 00:52:19;;;;;;;;;;;2.30;99.90;;;;;;5094853;27;19924;-62
2024/01/05 00:54:44;;;;;;;;;;;2.30;99.90;;;;;;5088159;27;19953;-62
2024/01/05 00:57:10;;;;;;;;;;;2.30;99.90;;;;;;5106721;27;19928;-62
2024/01/05 00:59:36;;;;;;;;;;;2.30;99.90;;;;;;5089602;27;20352;-63
2024/01/05 01:02:01;;;;;;;;;;;2.30;99.90;;;;;;5088742;28;19927;-62
2024/01/05 01:04:27;;;;;;;;;;;2.30;99.90;;;;;;5087025;27;19954;-62
2024/01/05 01:06:52;;;;;;;;;;;2.30;99.90;;;;;;5087354;27;20342;-62
2024/01/05 01:09:18;;;;;;;;;;;2.30;99.90;;;;;;5085924;27;20344;-63
2024/01/05 01:11:44;;;;;;;;;;;2.30;99.90;;;;;;5071106;28;19939;-62
2024/01/05 01:14:09;;;;;;;;;;;2.30;99.90;;;;;;5105443;27;21782;-62
2024/01/05 01:16:35;;;;;;;;;;;2.20;99.90;;;;;;5076804;28;19927;-63
2024/01/05 01:19:01;;;;;;;;;;;2.20;99.90;;;;;;5087597;28;20327;-63
2024/01/05 01:21:26;;;;;;;;;;;2.20;99.90;;;;;;5088269;28;19924;-62
2024/01/05 01:23:52;;;;;;;;;;;2.20;99.90;;;;;;5071794;28;19963;-62
2024/01/05 01:26:17;;;;;;;;;;;2.20;99.90;;;;;;5087627;28;20289;-61
2024/01/05 01:28:43;;;;;;;;;;;2.20;99.90;;;;;;5092859;28;19965;-62
2024/01/05 01:31:09;;;;;;;;;;;2.20;99.90;;;;;;5069614;28;19923;-62
2024/01/05 01:33:34;;;;;;;;;;;2.30;99.90;;;;;;5098385;28;19969;-62
2024/01/05 01:36:00;;;;;;;;;;;2.20;99.90;;;;;;5069880;28;19969;-62
2024/01/05 01:38:25;;;;;;;;;;;2.20;99.90;;;;;;5087019;27;20381;-62
2024/01/05 01:40:53;;;;;;;;;;;2.10;99.90;;;;;;5092170;27;19928;-62
2024/01/05 01:43:20;;;;;;;;;;;2.10;99.90;;;;;;5099215;27;19973;-62
2024/01/05 01:45:45;;;;;;;;;;;2.20;99.90;;;;;;5075244;27;19971;-62
2024/01/05 01:48:11;;;;;;;;;;;2.10;99.90;;;;;;5081559;27;22532;-63
2024/01/05 01:50:37;;;;;;;;;;;2.10;99.90;;;;;;5089138;27;19966;-61
2024/01/05 01:53:03;;;;;;;;;;;2.20;99.90;;;;;;5088992;28;19923;-62
2024/01/05 01:55:28;;;;;;;;;;;2.10;99.90;;;;;;5089463;27;19928;-62
2024/01/05 01:57:54;;;;;;;;;;;2.10;99.90;;;;;;5089318;28;20370;-63
2024/01/05 02:00:19;;;;;;;;;;;2.10;99.90;;;;;;5086628;28;19924;-62
2024/01/05 02:02:46;;;;;;;;;;;2.10;99.90;;;;;;5088672;27;20080;-61
2024/01/05 02:05:12;;;;;;;;;;;2.10;99.90;;;;;;5093543;27;19924;-62
2024/01/05 02:07:37;;;;;;;;;;;2.10;99.90;;;;;;5087366;28;19926;-62
2024/01/05 02:10:03;;;;;;;;;;;2.20;99.90;;;;;;5087363;27;19924;-62
2024/01/05 02:12:29;;;;;;;;;;;2.10;99.90;;;;;;5075260;28;20393;-62
2024/01/05 02:14:54;;;;;;;;;;;2.10;99.90;;;;;;5087797;27;19934;-62
2024/01/05 02:17:33;;;;;;;;;;;2.20;99.90;;;;;;5106522;27;19963;-62
2024/01/05 02:19:59;;;;;;;;;;;2.10;99.90;;;;;;5086866;27;19920;-62
2024/01/05 02:22:26;;;;;;;;;;;2.20;99.90;;;;;;5087489;28;19946;-62
2024/01/05 02:24:52;;;;;;;;;;;2.10;99.90;;;;;;5090567;27;20251;-62
2024/01/05 02:27:18;;;;;;;;;;;2.20;99.90;;;;;;5092681;27;20381;-62
2024/01/05 02:29:43;;;;;;;;;;;2.10;99.90;;;;;;5089673;28;19920;-62
2024/01/05 02:32:09;;;;;;;;;;;2.10;99.90;;;;;;5089093;27;19923;-62
2024/01/05 02:34:35;;;;;;;;;;;2.10;99.90;;;;;;5087469;28;20420;-63
2024/01/05 02:37:00;;;;;;;;;;;2.20;99.90;;;;;;5089780;27;19930;-62
2024/01/05 02:39:26;;;;;;;;;;;2.10;99.90;;;;;;5087345;27;20841;-62
2024/01/05 02:41:51;;;;;;;;;;;2.10;99.90;;;;;;5085085;28;19932;-62
2024/01/05 02:44:17;;;;;;;;;;;2.10;99.90;;;;;;5071671;27;20491;-62
2024/01/05 02:46:42;;;;;;;;;;;2.20;99.90;;;;;;5086394;27;19924;-61
2024/01/05 02:49:08;;;;;;;;;;;2.20;99.90;;;;;;5075671;27;19938;-62
2024/01/05 02:51:34;;;;;;;;;;;2.10;99.90;;;;;;5083226;27;19923;-62
2024/01/05 02:53:59;;;;;;;;;;;2.10;99.90;;;;;;5084210;28;19927;-62
2024/01/05 02:56:25;;;;;;;;;;;2.10;99.90;;;;;;5087170;27;19928;-62
2024/01/05 02:58:53;;;;;;;;;;;2.10;99.90;;;;;;5088325;27;19930;-62
2024/01/05 03:01:19;;;;;;;;;;;2.10;99.90;;;;;;5087285;27;20321;-62
2024/01/05 03:03:48;;;;;;;;;;;2.10;99.90;;;;;;5092448;27;19928;-62
2024/01/05 03:06:14;;;;;;;;;;;2.10;99.90;;;;;;5087758;28;19930;-63
2024/01/05 03:08:40;;;;;;;;;;;2.10;99.90;;;;;;5088727;27;19920;-63
2024/01/05 03:11:05;;;;;;;;;;;2.10;99.90;;;;;;5090332;27;19973;-63
2024/01/05 03:13:31;;;;;;;;;;;2.10;99.90;;;;;;5084707;27;19924;-62
2024/01/05 03:15:57;;;;;;;;;;;2.10;99.90;;;;;;5087694;27;20464;-62
2024/01/05 03:18:22;;;;;;;;;;;2.10;99.90;;;;;;5073126;28;19931;-63
2024/01/05 03:20:48;;;;;;;;;;;2.10;99.90;;;;;;5089652;27;19928;-63
2024/01/05 03:23:14;;;;;;;;;;;2.10;99.90;;;;;;5090381;27;19931;-61
2024/01/05 03:25:44;;;;;;;;;;;2.10;99.90;;;;;;5088498;27;19924;-61
2024/01/05 03:28:13;;;;;;;;;;;2.10;99.90;;;;;;5086439;28;19923;-62
2024/01/05 03:30:38;;;;;;;;;;;2.10;99.90;;;;;;5086080;27;19965;-62
2024/01/05 03:33:04;;;;;;;;;;;2.10;99.90;;;;;;5087066;27;19931;-62
2024/01/05 03:35:30;;;;;;;;;;;2.00;99.90;;;;;;5083368;27;19932;-62
2024/01/05 03:37:56;;;;;;;;;;;2.10;99.90;;;;;;5093807;27;19934;-62
2024/01/05 03:40:21;;;;;;;;;;;2.20;99.90;;;;;;5084888;27;20785;-62
2024/01/05 03:42:47;;;;;;;;;;;2.10;99.90;;;;;;5084039;28;20224;-62
2024/01/05 03:45:13;;;;;;;;;;;2.10;99.90;;;;;;5084691;27;20367;-62
2024/01/05 03:47:38;;;;;;;;;;;2.00;99.90;;;;;;5082822;28;19927;-62
2024/01/05 03:50:04;;;;;;;;;;;2.10;99.90;;;;;;5074227;28;20061;-62
2024/01/05 03:52:30;;;;;;;;;;;2.00;99.90;;;;;;5072159;28;19923;-62
2024/01/05 03:54:56;;;;;;;;;;;2.00;99.90;;;;;;5047743;28;19994;-62
2024/01/05 03:57:21;;;;;;;;;;;2.10;99.90;;;;;;5069537;28;19935;-63
2024/01/05 03:59:47;;;;;;;;;;;2.10;99.90;;;;;;5076854;28;19923;-62
2024/01/05 04:02:12;;;;;;;;;;;2.00;99.90;;;;;;5071116;28;19978;-62
2024/01/05 04:04:41;;;;;;;;;;;2.00;99.90;;;;;;5092481;28;19932;-62
2024/01/05 04:07:07;;;;;;;;;;;2.00;99.90;;;;;;5094459;28;20226;-62
2024/01/05 04:09:32;;;;;;;;;;;2.00;99.90;;;;;;5067328;28;20401;-62
2024/01/05 04:11:58;;;;;;;;;;;2.00;99.90;;;;;;5074394;28;20366;-61
2024/01/05 04:14:24;;;;;;;;;;;2.00;99.90;;;;;;5076027;28;19959;-62
2024/01/05 04:16:50;;;;;;;;;;;2.00;99.90;;;;;;5074313;28;20018;-62
2024/01/05 04:19:15;;;;;;;;;;;2.00;99.90;;;;;;5092601;28;19928;-62
2024/01/05 04:21:41;;;;;;;;;;;2.00;99.90;;;;;;5077396;28;20408;-63
2024/01/05 04:24:07;;;;;;;;;;;2.00;99.90;;;;;;5069599;28;19939;-62
2024/01/05 04:26:33;;;;;;;;;;;2.00;99.90;;;;;;5091029;28;19932;-62
2024/01/05 04:28:58;;;;;;;;;;;2.00;99.90;;;;;;5092277;28;19970;-62
2024/01/05 04:31:24;;;;;;;;;;;2.00;99.90;;;;;;5074322;28;19932;-61
2024/01/05 04:33:49;;;;;;;;;;;2.00;99.90;;;;;;5071954;28;19928;-62
2024/01/05 04:36:15;;;;;;;;;;;2.00;99.90;;;;;;5069691;28;19924;-62
2024/01/05 04:38:41;;;;;;;;;;;2.00;99.90;;;;;;5074410;28;19930;-62
2024/01/05 04:41:07;;;;;;;;;;;2.00;99.90;;;;;;5090955;28;20050;-63
2024/01/05 04:43:32;;;;;;;;;;;2.00;99.90;;;;;;5075162;28;19932;-62
2024/01/05 04:45:59;;;;;;;;;;;2.00;99.90;;;;;;5070490;28;19924;-63
2024/01/05 04:48:25;;;;;;;;;;;2.00;99.90;;;;;;5080934;27;20382;-62
2024/01/05 04:50:51;;;;;;;;;;;2.00;99.90;;;;;;5087092;27;19923;-62
2024/01/05 04:53:16;;;;;;;;;;;2.00;99.90;;;;;;5086345;27;20367;-62
2024/01/05 04:55:42;;;;;;;;;;;2.00;99.90;;;;;;5106810;27;19927;-63
2024/01/05 04:58:08;;;;;;;;;;;2.00;99.90;;;;;;5059817;27;19927;-62
2024/01/05 05:00:33;;;;;;;;;;;2.00;99.90;;;;;;5101912;27;19927;-62
2024/01/05 05:02:59;;;;;;;;;;;2.00;99.90;;;;;;5086507;27;19927;-63
2024/01/05 05:05:25;;;;;;;;;;;2.00;99.90;;;;;;5079310;27;20398;-61
2024/01/05 05:07:51;;;;;;;;;;;2.10;99.90;;;;;;5089946;28;20272;-63
2024/01/05 05:10:17;;;;;;;;;;;2.00;99.90;;;;;;5074046;28;20302;-62
2024/01/05 05:12:43;;;;;;;;;;;2.00;99.90;;;;;;5084609;28;20017;-62
2024/01/05 05:15:10;;;;;;;;;;;2.00;99.90;;;;;;5105215;27;19923;-61
2024/01/05 05:17:36;;;;;;;;;;;2.10;99.90;;;;;;5105508;27;19938;-62
2024/01/05 05:20:03;;;;;;;;;;;2.10;99.90;;;;;;5087308;28;19927;-62
2024/01/05 05:22:28;;;;;;;;;;;2.10;99.90;;;;;;5087103;28;20313;-62
2024/01/05 05:24:54;;;;;;;;;;;2.10;99.90;;;;;;5106635;28;19938;-62
2024/01/05 05:27:20;;;;;;;;;;;2.10;99.90;;;;;;5087096;28;19923;-62
2024/01/05 05:29:47;;;;;;;;;;;2.10;99.90;;;;;;5105948;28;20432;-62
2024/01/05 05:32:13;;;;;;;;;;;2.10;99.90;;;;;;5089763;28;20422;-62
2024/01/05 05:34:40;;;;;;;;;;;2.10;99.90;;;;;;5089577;28;19927;-62
2024/01/05 05:37:05;;;;;;;;;;;2.10;99.90;;;;;;5090638;28;20014;-62
2024/01/05 05:39:31;;;;;;;;;;;2.10;99.90;;;;;;5087792;28;20377;-62
2024/01/05 05:41:57;;;;;;;;;;;2.10;99.90;;;;;;5088624;28;19947;-62
2024/01/05 05:44:22;;;;;;;;;;;2.10;99.90;;;;;;5085924;28;19927;-63
2024/01/05 05:46:48;;;;;;;;;;;2.20;99.90;;;;;;5085861;28;20313;-62
2024/01/05 05:49:13;;;;;;;;;;;2.10;99.90;;;;;;5078913;28;19939;-62
2024/01/05 05:51:39;;;;;;;;;;;2.10;99.90;;;;;;5079057;28;19931;-61
2024/01/05 05:54:04;;;;;;;;;;;2.10;99.90;;;;;;5069244;28;20390;-62
2024/01/05 05:56:30;;;;;;;;;;;2.20;99.90;;;;;;5052553;28;19924;-62
2024/01/05 05:58:56;;;;;;;;;;;2.20;99.90;;;;;;5075604;28;19928;-62
2024/01/05 06:01:23;;;;;;;;;;;2.20;99.90;;;;;;5057826;28;19967;-62
2024/01/05 06:03:49;;;;;;;;;;;2.30;99.90;;;;;;5072498;28;19932;-62
2024/01/05 06:06:18;;;;;;;;;;;2.20;99.90;;;;;;5059140;28;20278;-63
2024/01/05 06:08:44;;;;;;;;;;;2.20;99.90;;;;;;5069389;28;19928;-62
2024/01/05 06:11:09;;;;;;;;;;;2.20;99.90;;;;;;5057551;28;20003;-63
2024/01/05 06:13:35;;;;;;;;;;;2.30;99.90;;;;;;5086440;28;19935;-63
2024/01/05 06:16:01;;;;;;;;;;;2.20;99.90;;;;;;5066550;28;19941;-62
2024/01/05 06:18:26;;;;;;;;;;;2.20;99.90;;;;;;5066889;28;20484;-63
2024/01/05 06:20:52;;;;;;;;;;;2.30;99.90;;;;;;5071561;28;21242;-62
2024/01/05 06:23:18;;;;;;;;;;;2.30;99.90;;;;;;5051523;28;19985;-62
2024/01/05 06:25:43;;;;;;;;;;;2.30;99.90;;;;;;5074434;28;20007;-63
2024/01/05 06:28:10;;;;;;;;;;;2.30;99.90;;;;;;5069949;28;20387;-63
2024/01/05 06:30:35;;;;;;;;;;;2.50;99.90;;;;;;5089637;28;19931;-62
2024/01/05 06:33:01;;;;;;;;;;;2.30;99.90;;;;;;5068216;28;20622;-62
2024/01/05 06:35:26;;;;;;;;;;;2.40;99.90;;;;;;5053756;28;19928;-62
2024/01/05 06:37:52;;;;;;;;;;;2.30;99.90;;;;;;5072975;28;19928;-62
2024/01/05 06:40:17;;;;;;;;;;;2.40;99.90;;;;;;5057715;28;19973;-63
2024/01/05 06:42:43;;;;;;;;;;;2.40;99.90;;;;;;5070562;28;20049;-63
2024/01/05 06:45:09;;;;;;;;;;;2.40;99.90;;;;;;5072116;28;20361;-62
2024/01/05 06:47:35;;;;;;;;;;;2.40;99.90;;;;;;5074203;28;20074;-62
2024/01/05 06:50:00;;;;;;;;;;;2.40;99.90;;;;;;5086088;27;20051;-62
2024/01/05 06:52:26;;;;;;;;;;;2.40;99.90;;;;;;5090402;27;20015;-62
2024/01/05 06:54:51;;;;;;;;;;;2.40;99.90;;;;;;5088151;27;20298;-62
2024/01/05 06:57:17;;;;;;;;;;;2.40;99.90;;;;;;5085547;28;19982;-62
2024/01/05 06:59:42;;;;;;;;;;;2.40;99.90;;;;;;5097163;27;19927;-63
2024/01/05 07:02:08;;;;;;;;;;;2.50;99.90;;;;;;5091679;28;20270;-62
2024/01/05 07:04:33;;;;;;;;;;;2.40;99.90;;;;;;5095210;27;19932;-63
2024/01/05 07:06:59;;;;;;;;;;;2.40;99.90;;;;;;5090558;27;19935;-62
2024/01/05 07:09:25;;;;;;;;;;;2.40;99.90;;;;;;5085274;27;19930;-62
2024/01/05 07:11:51;;;;;;;;;;;2.50;99.90;;;;;;5073960;27;20009;-62
2024/01/05 07:14:20;;;;;;;;;;;2.50;99.90;;;;;;5092656;27;20099;-62
2024/01/05 07:16:46;;;;;;;;;;;2.50;99.90;;;;;;5087722;28;19952;-62
2024/01/05 07:19:12;;;;;;;;;;;2.50;99.90;;;;;;5089939;28;20385;-63
2024/01/05 07:21:43;;;;;;;;;;;2.50;99.90;;;;;;5084250;27;19977;-62
2024/01/05 07:24:09;;;;;;;;;;;2.50;99.90;;;;;;5087162;28;20032;-63
2024/01/05 07:26:35;;;;;;;;;;;2.50;99.90;;;;;;5097837;27;19930;-62
2024/01/05 07:29:01;;;;;;;;;;;2.50;99.90;;;;;;5084474;28;20395;-62
2024/01/05 07:31:27;;;;;;;;;;;2.70;99.90;;;;;;5089290;27;19930;-62
2024/01/05 07:33:53;;;;;;;;;;;2.50;99.90;;;;;;5092482;27;20061;-62
2024/01/05 07:36:18;;;;;;;;;;;2.60;99.90;;;;;;5076319;28;19924;-62
2024/01/05 07:38:44;;;;;;;;;;;2.50;99.90;;;;;;5071958;28;19924;-62
2024/01/05 07:41:14;;;;;;;;;;;2.60;99.90;;;;;;5090998;28;19930;-62
2024/01/05 07:43:41;;;;;;;;;;;2.60;99.90;;;;;;5096062;27;20968;-63
2024/01/05 07:46:07;;;;;;;;;;;2.60;99.90;;;;;;5079416;27;19994;-63
2024/01/05 07:48:32;;;;;;;;;;;2.60;99.90;;;;;;5090691;27;19936;-62
2024/01/05 07:51:02;;;;;;;;;;;2.60;99.90;;;;;;5086570;28;20818;-63
2024/01/05 07:53:28;;;;;;;;;;;2.70;99.90;;;;;;5089450;27;19977;-62
2024/01/05 07:55:54;;;;;;;;;;;2.60;99.90;;;;;;5089545;27;19941;-62
2024/01/05 07:58:19;;;;;;;;;;;2.60;99.90;;;;;;5088127;28;19931;-60
2024/01/05 08:00:45;;;;;;;;;;;2.70;99.90;;;;;;5088660;27;19942;-62
2024/01/05 08:03:11;;;;;;;;;;;2.60;99.90;;;;;;5086955;27;19959;-63
2024/01/05 08:05:37;;;;;;;;;;;2.60;99.90;;;;;;5089129;28;20040;-63
2024/01/05 08:08:03;;;;;;;;;;;2.70;99.90;;;;;;5074587;28;20302;-62
2024/01/05 08:10:30;;;;;;;;;;;2.70;99.90;;;;;;5092244;27;19924;-61
2024/01/05 08:12:55;;;;;;;;;;;2.70;99.90;;;;;;5092100;27;19942;-63
2024/01/05 08:15:21;;;;;;;;;;;2.70;99.90;;;;;;5087292;27;19920;-62
2024/01/05 08:17:46;;;;;;;;;;;2.70;99.90;;;;;;5090267;27;19924;-62
2024/01/05 08:20:12;;;;;;;;;;;2.70;99.90;;;;;;5092594;27;19923;-62
2024/01/05 08:22:38;;;;;;;;;;;2.70;99.90;;;;;;5088008;28;19924;-62
2024/01/05 08:25:04;;;;;;;;;;;2.80;99.90;;;;;;5087932;27;19927;-63
2024/01/05 08:27:29;;;;;;;;;;;2.80;99.90;;;;;;5094242;27;20370;-62
2024/01/05 08:29:55;;;;;;;;;;;2.80;99.90;;;;;;5090322;27;20795;-63
2024/01/05 08:32:21;;;;;;;;;;;2.80;99.90;;;;;;5090153;27;19923;-63
2024/01/05 08:34:46;;;;;;;;;;;2.80;99.90;;;;;;5091993;27;19920;-62
2024/01/05 08:37:12;;;;;;;;;;;2.80;99.90;;;;;;5086149;28;19924;-63
2024/01/05 08:39:42;;;;;;;;;;;2.80;99.90;;;;;;5112773;27;19920;-63
2024/01/05 08:42:07;;;;;;;;;;;2.80;99.90;;;;;;5091776;28;20378;-63
2024/01/05 08:44:34;;;;;;;;;;;2.80;99.90;;;;;;5093414;28;19936;-63
2024/01/05 08:47:00;;;;;;;;;;;2.90;99.90;;;;;;5093338;28;20548;-63
2024/01/05 08:49:26;;;;;;;;;;;2.80;99.90;;;;;;5087995;28;19939;-63
2024/01/05 08:51:52;;;;;;;;;;;2.90;99.90;;;;;;5098345;28;20298;-62
2024/01/05 08:54:18;;;;;;;;;;;2.90;99.90;;;;;;5062903;28;19920;-61
2024/01/05 08:56:44;;;;;;;;;;;2.90;99.90;;;;;;5086773;28;19935;-63
2024/01/05 08:59:10;;;;;;;;;;;2.90;99.90;;;;;;5091652;27;20861;-62
2024/01/05 09:01:36;;;;;;;;;;;2.90;99.90;;;;;;5093248;28;19924;-63
2024/01/05 09:04:02;;;;;;;;;;;3.00;99.90;;;;;;5091616;28;20007;-63
2024/01/05 09:06:28;;;;;;;;;;;3.00;99.90;;;;;;5096894;28;19930;-63
2024/01/05 09:08:54;;;;;;;;;;;2.90;99.90;;;;;;5080322;28;20313;-63
2024/01/05 09:11:19;;;;;;;;;;;3.00;99.90;;;;;;5092066;28;19924;-62
2024/01/05 09:13:45;;;;;;;;;;;3.00;99.90;;;;;;5091395;28;19954;-61
2024/01/05 09:16:12;;;;;;;;;;;3.00;99.90;;;;;;5080585;28;19930;-63
2024/01/05 09:18:38;;;;;;;;;;;3.00;99.90;;;;;;5089503;28;19938;-62
2024/01/05 09:21:06;;;;;;;;;;;3.00;99.90;;;;;;5071821;28;19948;-63
2024/01/05 09:23:32;;;;;;;;;;;3.00;99.90;;;;;;5099275;28;20076;-63
2024/01/05 09:25:57;;;;;;;;;;;3.00;99.90;;;;;;5093431;28;20429;-62
2024/01/05 09:28:23;;;;;;;;;;;3.10;99.90;;;;;;5099324;28;20467;-63
2024/01/05 09:30:49;;;;;;;;;;;3.10;99.90;;;;;;5078504;28;19919;-61
2024/01/05 09:33:15;;;;;;;;;;;3.10;99.90;;;;;;5090337;28;20267;-63
2024/01/05 09:35:41;;;;;;;;;;;3.10;99.90;;;;;;5093631;28;19927;-63
2024/01/05 09:38:06;;;;;;;;;;;3.10;99.90;;;;;;5089115;28;19924;-63
2024/01/05 09:40:33;;;;;;;;;;;3.10;99.90;;;;;;5091527;28;20001;-63
2024/01/05 09:43:02;;;;;;;;;;;3.10;99.90;;;;;;5091813;28;19927;-63
2024/01/05 09:45:28;;;;;;;;;;;3.10;99.90;;;;;;5092322;28;19955;-63
2024/01/05 09:47:57;;;;;;;;;;;3.20;99.90;;;;;;5098987;28;20382;-63
2024/01/05 09:50:23;;;;;;;;;;;3.20;99.90;;;;;;5092451;28;20740;-63
2024/01/05 09:52:49;;;;;;;;;;;3.20;99.90;;;;;;5093950;28;19923;-62
2024/01/05 09:55:15;;;;;;;;;;;3.20;99.90;;;;;;5094303;28;20377;-62
2024/01/05 09:57:41;;;;;;;;;;;3.20;99.90;;;;;;5088054;28;19968;-62
2024/01/05 10:00:08;;;;;;;;;;;3.30;99.90;;;;;;5075877;27;19998;-63
2024/01/05 10:02:39;;;;;;;;;;;3.30;99.90;;;;;;5087125;27;20008;-62
2024/01/05 10:05:05;;;;;;;;;;;3.30;99.90;;;;;;5091653;27;20651;-63
2024/01/05 10:07:31;;;;;;;;;;;3.30;99.90;;;;;;5091160;27;20016;-62
2024/01/05 10:09:58;;;;;;;;;;;3.30;99.90;;;;;;5108370;27;19973;-63
2024/01/05 10:12:24;;;;;;;;;;;3.40;99.90;;;;;;5075132;27;19957;-62
2024/01/05 10:14:50;;;;;;;;;;;3.40;99.90;;;;;;5088998;27;19931;-62
2024/01/05 10:17:16;;;;;;;;;;;3.40;99.90;;;;;;5085415;27;20330;-63
2024/01/05 10:19:41;;;;;;;;;;;3.40;99.90;;;;;;5077768;27;19931;-62
2024/01/05 10:22:08;;;;;;;;;;;3.40;99.90;;;;;;5090969;27;20013;-63
2024/01/05 10:24:34;;;;;;;;;;;3.50;99.90;;;;;;5087602;27;19938;-63
2024/01/05 10:27:10;;;;;;;;;;;3.50;99.90;;;;;;5089245;27;19923;-63
2024/01/05 10:29:37;;;;;;;;;;;3.50;99.90;;;;;;5091391;27;19937;-62
2024/01/05 10:32:13;;;;;;;;;;;3.50;99.90;;;;;;5090543;27;20285;-62
2024/01/05 10:34:39;;;;;;;;;;;3.60;99.90;;;;;;5088997;27;20617;-62
2024/01/05 10:37:05;;;;;;;;;;;3.60;99.90;;;;;;5077639;27;19927;-63
2024/01/05 10:39:31;;;;;;;;;;;3.60;99.90;;;;;;5091953;27;20370;-62
2024/01/05 10:42:15;;;;;;;;;;;3.70;99.90;;;;;;5089964;27;19924;-62
2024/01/05 10:44:42;;;;;;;;;;;3.70;99.90;;;;;;5093781;27;20437;-63
2024/01/05 10:47:08;;;;;;;;;;;3.70;99.90;;;;;;5091199;27;20006;-62
2024/01/05 10:49:34;;;;;;;;;;;3.80;99.90;;;;;;5080061;28;19945;-62
2024/01/05 10:52:00;;;;;;;;;;;3.80;99.90;;;;;;5085811;28;19959;-63
2024/01/05 10:54:26;;;;;;;;;;;3.80;99.90;;;;;;5108767;27;20017;-62
2024/01/05 10:56:55;;;;;;;;;;;3.80;99.90;;;;;;5089372;28;19969;-63
2024/01/05 10:59:21;;;;;;;;;;;3.90;99.90;;;;;;5078038;28;19955;-62
2024/01/05 11:01:47;;;;;;;;;;;3.90;99.90;;;;;;5088785;28;20274;-63
2024/01/05 11:04:15;;;;;;;;;;;3.90;99.90;;;;;;5074052;28;19932;-63
2024/01/05 11:06:41;;;;;;;;;;;3.90;99.90;;;;;;5104139;27;19934;-63
2024/01/05 11:09:28;;;;;;;;;;;3.90;99.90;;;;;;5085280;28;19927;-64
2024/01/05 11:12:03;;;;;;;;;;;4.00;99.90;;;;;;5079142;28;19928;-62
2024/01/05 11:14:38;;;;;;;;;;;4.00;99.90;;;;;;5090111;28;19927;-62
2024/01/05 11:17:19;;;;;;;;;;;4.10;99.90;;;;;;5087393;28;19985;-62
2024/01/05 11:19:54;;;;;;;;;;;4.10;99.90;;;;;;5090371;28;19928;-62
2024/01/05 11:22:23;;;;;;;;;;;4.20;99.90;;;;;;5086764;28;19924;-62
2024/01/05 11:24:49;;;;;;;;;;;4.20;99.90;;;;;;5089543;28;20484;-63
2024/01/05 11:27:31;;;;;;;;;;;4.30;99.90;;;;;;5091179;28;20301;-62
2024/01/05 11:29:57;;;;;;;;;;;4.30;99.90;;;;;;5091348;28;20370;-63
2024/01/05 11:32:37;;;;;;;;;;;4.30;99.90;;;;;;5089659;28;23225;-62
2024/01/05 11:35:04;;;;;;;;;;;4.40;99.90;;;;;;5091764;28;19971;-62
2024/01/05 11:37:30;;;;;;;;;;;4.40;99.90;;;;;;5089004;28;20426;-63
2024/01/05 11:40:00;;;;;;;;;;;4.40;99.90;;;;;;5086592;27;19971;-62
2024/01/05 11:42:33;;;;;;;;;;;4.30;99.90;;;;;;5073302;28;21343;-62
2024/01/05 11:45:00;;;;;;;;;;;4.30;99.90;;;;;;5074919;28;19924;-62
2024/01/05 11:47:45;;;;;;;;;;;4.30;99.90;;;;;;5076925;28;19991;-62
2024/01/05 11:50:37;;;;;;;;;;;4.30;99.90;;;;;;5055457;28;19938;-61
2024/01/05 11:53:06;;;;;;;;;;;4.30;99.90;;;;;;5085349;28;19924;-62
2024/01/05 11:55:39;;;;;;;;;;;4.30;99.90;;;;;;5086265;28;19977;-61
2024/01/05 11:58:05;;;;;;;;;;;4.30;99.90;;;;;;5053441;28;19939;-61
2024/01/05 12:00:30;;;;;;;;;;;4.30;99.90;;;;;;5066377;28;20280;-61
2024/01/05 12:03:02;;;;;;;;;;;4.40;99.90;;;;;;5055090;28;19980;-61
2024/01/05 12:05:28;;;;;;;;;;;4.30;99.90;;;;;;5068803;28;20001;-62
2024/01/05 12:07:57;;;;;;;;;;;4.30;99.90;;;;;;5072018;28;20050;-62
2024/01/05 12:10:23;;;;;;;;;;;4.30;99.90;;;;;;5083699;28;19974;-61
2024/01/05 12:12:53;;;;;;;;;;;4.30;99.90;;;;;;5066712;28;19930;-61
2024/01/05 12:15:20;;;;;;;;;;;4.30;99.90;;;;;;5049732;28;19979;-62
2024/01/05 12:17:47;;;;;;;;;;;4.30;99.90;;;;;;5065585;28;19928;-61
2024/01/05 12:20:13;;;;;;;;;;;4.30;99.90;;;;;;5065897;28;20404;-61
2024/01/05 12:22:39;;;;;;;;;;;4.40;99.90;;;;;;5055629;28;20412;-62
2024/01/05 12:25:05;;;;;;;;;;;4.50;99.90;;;;;;5056665;28;19928;-61
2024/01/05 12:27:38;;;;;;;;;;;4.40;99.90;;;;;;5058499;28;20024;-61
2024/01/05 12:30:07;;;;;;;;;;;4.50;99.90;;;;;;5088898;28;19935;-62
2024/01/05 12:32:35;;;;;;;;;;;4.50;99.90;;;;;;5063398;28;19928;-62
2024/01/05 12:35:02;;;;;;;;;;;4.50;99.90;;;;;;5071864;28;19924;-62
2024/01/05 12:37:28;;;;;;;;;;;4.50;99.90;;;;;;5068003;28;20278;-62
2024/01/05 12:39:54;;;;;;;;;;;4.60;99.90;;;;;;5064943;28;19950;-62
2024/01/05 12:42:20;;;;;;;;;;;4.60;99.90;;;;;;5065300;28;20375;-62
2024/01/05 12:44:45;;;;;;;;;;;4.60;99.90;;;;;;5075326;28;19939;-62
2024/01/05 12:47:11;;;;;;;;;;;4.60;99.90;;;;;;5066277;28;19924;-61
2024/01/05 12:49:37;;;;;;;;;;;4.60;99.90;;;;;;5078466;28;20428;-61
2024/01/05 12:52:04;;;;;;;;;;;4.60;99.90;;;;;;5084726;28;19955;-62
2024/01/05 12:54:40;;;;;;;;;;;4.60;99.90;;;;;;5087688;28;19923;-62
2024/01/05 12:57:06;;;;;;;;;;;4.60;99.90;;;;;;5091448;28;20298;-61
2024/01/05 12:59:32;;;;;;;;;;;4.60;99.90;;;;;;5083321;28;19928;-61
2024/01/05 13:02:02;;;;;;;;;;;4.60;99.90;;;;;;5088616;28;19977;-62
2024/01/05 13:04:33;;;;;;;;;;;4.60;99.90;;;;;;5084662;28;19928;-61
2024/01/05 13:06:59;;;;;;;;;;;4.60;99.90;;;;;;5082077;28;20290;-61
2024/01/05 13:09:25;;;;;;;;;;;4.60;99.90;;;;;;5080354;28;19924;-62
2024/01/05 13:11:51;;;;;;;;;;;4.50;99.90;;;;;;5085358;28;20584;-61
2024/01/05 13:14:17;;;;;;;;;;;4.70;99.90;;;;;;5086267;28;19928;-61
2024/01/05 13:16:42;;;;;;;;;;;4.60;99.90;;;;;;5074311;28;19923;-62
2024/01/05 13:19:09;;;;;;;;;;;4.60;99.90;;;;;;5083925;28;20355;-62
2024/01/05 13:21:35;;;;;;;;;;;4.60;99.90;;;;;;5086583;28;19928;-61
2024/01/05 13:24:01;;;;;;;;;;;4.60;99.90;;;;;;5073850;28;19981;-61
2024/01/05 13:26:26;;;;;;;;;;;4.60;99.90;;;;;;5082993;28;19919;-61
2024/01/05 13:28:52;;;;;;;;;;;4.60;99.90;;;;;;5088599;28;20374;-62
2024/01/05 13:31:18;;;;;;;;;;;4.60;99.90;;;;;;5087657;28;19928;-62
2024/01/05 13:33:43;;;;;;;;;;;4.60;99.90;;;;;;5088093;27;20268;-61
2024/01/05 13:36:09;;;;;;;;;;;4.60;99.90;;;;;;5108275;27;19927;-61
2024/01/05 13:38:34;;;;;;;;;;;4.60;99.90;;;;;;5093315;27;19923;-61
2024/01/05 13:41:00;;;;;;;;;;;4.60;99.90;;;;;;5093189;27;19920;-63
2024/01/05 13:43:26;;;;;;;;;;;4.60;99.90;;;;;;5094308;27;19978;-62
2024/01/05 13:45:51;;;;;;;;;;;4.60;99.90;;;;;;5101322;27;20283;-62
2024/01/05 13:48:17;;;;;;;;;;;4.60;99.90;;;;;;5088074;28;19966;-61
2024/01/05 13:50:43;;;;;;;;;;;4.60;99.90;;;;;;5091865;28;19972;-62
2024/01/05 13:53:12;;;;;;;;;;;4.60;99.90;;;;;;5089644;27;19976;-61
2024/01/05 13:55:38;;;;;;;;;;;4.60;99.90;;;;;;5094247;28;19930;-61
2024/01/05 13:58:04;;;;;;;;;;;4.50;99.90;;;;;;5086987;28;19919;-62
2024/01/05 14:00:29;;;;;;;;;;;4.50;99.90;;;;;;5077985;27;19924;-62
2024/01/05 14:02:55;;;;;;;;;;;4.50;99.90;;;;;;5072474;28;19928;-61
2024/01/05 14:05:20;;;;;;;;;;;4.50;99.90;;;;;;5110362;27;20116;-61
2024/01/05 14:07:46;;;;;;;;;;;4.50;99.90;;;;;;5087865;28;19920;-62
2024/01/05 14:10:11;;;;;;;;;;;4.50;99.90;;;;;;5069178;27;19968;-61
2024/01/05 14:12:37;;;;;;;;;;;4.50;99.90;;;;;;5087918;28;19950;-62
2024/01/05 14:15:05;;;;;;;;;;;4.50;99.90;;;;;;5086308;28;19935;-61
2024/01/05 14:17:31;;;;;;;;;;;4.50;99.90;;;;;;5092358;27;19970;-61
2024/01/05 14:19:57;;;;;;;;;;;4.50;99.90;;;;;;5088633;27;19930;-61
2024/01/05 14:22:23;;;;;;;;;;;4.50;99.90;;;;;;5092768;28;20286;-62
2024/01/05 14:24:49;;;;;;;;;;;4.60;99.90;;;;;;5086353;27;19931;-62
2024/01/05 14:27:14;;;;;;;;;;;4.50;99.90;;;;;;5078985;27;20283;-61